createdAt,value
2018-09-12T00:00:00.854Z,0.00
2018-09-12T00:01:00.876Z,0.00
2018-09-12T00:02:00.904Z,0.00
2018-09-12T00:03:00.921Z,0.00
2018-09-12T00:04:00.947Z,0.00
2018-09-12T00:05:00.974Z,0.00
2018-09-12T00:06:00.997Z,0.00
2018-09-12T00:07:01.022Z,0.00
2018-09-12T00:08:01.045Z,4.00
2018-09-12T00:09:01.070Z,0.00
2018-09-12T00:10:01.092Z,4.00
2018-09-12T00:11:01.113Z,0.00
2018-09-12T00:12:01.141Z,0.00
2018-09-12T00:13:01.163Z,0.00
2018-09-12T00:14:01.182Z,0.00
2018-09-12T00:15:01.211Z,0.00
2018-09-12T00:16:01.229Z,0.00
2018-09-12T00:17:01.256Z,0.00
2018-09-12T00:18:01.280Z,0.00
2018-09-12T00:19:01.307Z,0.00
2018-09-12T00:20:01.328Z,0.00
2018-09-12T00:21:01.408Z,0.00
2018-09-12T00:22:01.373Z,0.00
2018-09-12T00:23:01.398Z,0.00
2018-09-12T00:24:01.425Z,0.00
2018-09-12T00:25:01.446Z,0.00
2018-09-12T00:26:01.471Z,0.00
2018-09-12T00:27:01.490Z,0.00
2018-09-12T00:28:01.520Z,0.00
2018-09-12T00:29:01.542Z,0.00
2018-09-12T00:30:01.561Z,0.00
2018-09-12T00:31:01.587Z,0.00
2018-09-12T00:32:01.610Z,0.00
2018-09-12T00:33:01.632Z,0.00
2018-09-12T00:34:01.659Z,0.00
2018-09-12T00:35:01.682Z,0.00
2018-09-12T00:36:01.707Z,0.00
2018-09-12T00:37:01.725Z,0.00
2018-09-12T00:38:01.750Z,0.00
2018-09-12T00:39:01.774Z,0.00
2018-09-12T00:40:01.796Z,0.00
2018-09-12T00:41:01.827Z,0.00
2018-09-12T00:42:01.846Z,0.00
2018-09-12T00:43:01.864Z,0.00
2018-09-12T00:44:01.892Z,0.00
2018-09-12T00:45:01.912Z,0.00
2018-09-12T00:46:01.945Z,0.00
2018-09-12T00:47:01.961Z,0.00
2018-09-12T00:48:01.979Z,0.00
2018-09-12T00:49:02.004Z,0.00
2018-09-12T00:50:02.035Z,0.00
2018-09-12T00:51:02.056Z,0.00
2018-09-12T00:52:02.080Z,0.00
2018-09-12T00:53:02.100Z,0.00
2018-09-12T00:54:02.122Z,0.00
2018-09-12T00:55:02.155Z,0.00
2018-09-12T00:56:02.170Z,0.00
2018-09-12T00:57:02.194Z,0.00
2018-09-12T00:58:02.242Z,0.00
2018-09-12T00:59:02.238Z,0.00
2018-09-12T01:00:02.260Z,0.00
2018-09-12T01:01:02.281Z,0.00
2018-09-12T01:02:02.301Z,0.00
2018-09-12T01:03:02.331Z,0.00
2018-09-12T01:04:02.353Z,0.00
2018-09-12T01:05:02.371Z,0.00
2018-09-12T01:06:02.396Z,0.00
2018-09-12T01:07:02.420Z,0.00
2018-09-12T01:08:02.439Z,0.00
2018-09-12T01:09:02.471Z,0.00
2018-09-12T01:10:02.487Z,0.00
2018-09-12T01:11:02.509Z,0.00
2018-09-12T01:12:02.528Z,0.00
2018-09-12T01:13:02.548Z,0.00
2018-09-12T01:14:02.575Z,0.00
2018-09-12T01:15:02.597Z,0.00
2018-09-12T01:16:02.625Z,0.00
2018-09-12T01:17:02.641Z,0.00
2018-09-12T01:18:02.659Z,0.00
2018-09-12T01:19:02.677Z,0.00
2018-09-12T01:20:02.712Z,0.00
2018-09-12T01:21:02.730Z,0.00
2018-09-12T01:22:02.758Z,0.00
2018-09-12T01:23:02.780Z,0.00
2018-09-12T01:24:02.797Z,0.00
2018-09-12T01:25:02.821Z,0.00
2018-09-12T01:26:02.840Z,0.00
2018-09-12T01:27:02.861Z,4.00
2018-09-12T01:28:02.888Z,4.00
2018-09-12T01:29:02.905Z,0.00
2018-09-12T01:30:02.931Z,4.00
2018-09-12T01:31:02.949Z,0.00
2018-09-12T01:32:02.977Z,0.00
2018-09-12T01:33:02.996Z,0.00
2018-09-12T01:34:03.019Z,0.00
2018-09-12T01:35:03.039Z,0.00
2018-09-12T01:36:03.062Z,0.00
2018-09-12T01:37:03.083Z,0.00
2018-09-12T01:38:03.110Z,0.00
2018-09-12T01:39:03.138Z,0.00
2018-09-12T01:40:03.181Z,0.00
2018-09-12T01:41:03.176Z,0.00
2018-09-12T01:42:03.235Z,0.00
2018-09-12T01:43:03.219Z,0.00
2018-09-12T01:44:03.239Z,0.00
2018-09-12T01:45:03.261Z,0.00
2018-09-12T01:46:03.291Z,0.00
2018-09-12T01:47:03.313Z,0.00
2018-09-12T01:48:03.330Z,0.00
2018-09-12T01:49:03.355Z,0.00
2018-09-12T01:50:03.379Z,0.00
2018-09-12T01:51:03.401Z,0.00
2018-09-12T01:52:03.425Z,0.00
2018-09-12T01:53:03.443Z,0.00
2018-09-12T01:54:03.470Z,0.00
2018-09-12T01:55:03.489Z,0.00
2018-09-12T01:56:03.509Z,0.00
2018-09-12T01:57:03.539Z,0.00
2018-09-12T01:58:03.558Z,0.00
2018-09-12T01:59:03.574Z,0.00
2018-09-12T02:00:03.599Z,0.00
2018-09-12T02:01:03.619Z,0.00
2018-09-12T02:02:03.648Z,0.00
2018-09-12T02:03:03.669Z,0.00
2018-09-12T02:04:03.696Z,0.00
2018-09-12T02:05:03.717Z,0.00
2018-09-12T02:06:03.741Z,0.00
2018-09-12T02:07:03.757Z,0.00
2018-09-12T02:08:03.781Z,4.00
2018-09-12T02:09:03.800Z,0.00
2018-09-12T02:10:03.824Z,0.00
2018-09-12T02:11:03.850Z,0.00
2018-09-12T02:12:03.867Z,4.00
2018-09-12T02:13:03.897Z,0.00
2018-09-12T02:14:03.916Z,0.00
2018-09-12T02:15:03.946Z,0.00
2018-09-12T02:16:03.955Z,0.00
2018-09-12T02:17:03.979Z,0.00
2018-09-12T02:18:03.997Z,4.00
2018-09-12T02:19:04.023Z,4.00
2018-09-12T02:20:04.043Z,4.00
2018-09-12T02:21:04.061Z,0.00
2018-09-12T02:22:04.087Z,0.00
2018-09-12T02:23:04.107Z,0.00
2018-09-12T02:24:04.132Z,0.00
2018-09-12T02:25:04.150Z,0.00
2018-09-12T02:26:04.173Z,0.00
2018-09-12T02:27:04.200Z,0.00
2018-09-12T02:28:04.217Z,4.00
2018-09-12T02:29:04.239Z,4.00
2018-09-12T02:30:04.263Z,0.00
2018-09-12T02:31:04.282Z,0.00
2018-09-12T02:32:04.307Z,0.00
2018-09-12T02:33:04.325Z,0.00
2018-09-12T02:34:04.348Z,0.00
2018-09-12T02:35:04.372Z,4.00
2018-09-12T02:36:04.393Z,0.00
2018-09-12T02:37:04.413Z,0.00
2018-09-12T02:38:04.447Z,0.00
2018-09-12T02:39:04.464Z,4.00
2018-09-12T02:40:04.490Z,0.00
2018-09-12T02:41:04.501Z,0.00
2018-09-12T02:42:04.531Z,0.00
2018-09-12T02:43:04.543Z,0.00
2018-09-12T02:44:04.569Z,0.00
2018-09-12T02:45:04.589Z,0.00
2018-09-12T02:46:04.611Z,0.00
2018-09-12T02:47:04.629Z,0.00
2018-09-12T02:48:04.653Z,4.00
2018-09-12T02:49:04.679Z,4.00
2018-09-12T02:50:04.699Z,0.00
2018-09-12T02:51:04.713Z,0.00
2018-09-12T02:52:04.737Z,0.00
2018-09-12T02:53:04.765Z,0.00
2018-09-12T02:54:04.780Z,4.00
2018-09-12T02:55:04.809Z,0.00
2018-09-12T02:56:04.828Z,0.00
2018-09-12T02:57:04.845Z,0.00
2018-09-12T02:58:04.874Z,4.00
2018-09-12T02:59:04.895Z,0.00
2018-09-12T03:00:04.913Z,0.00
2018-09-12T03:01:04.935Z,0.00
2018-09-12T03:02:04.962Z,4.00
2018-09-12T03:03:04.974Z,4.00
2018-09-12T03:04:05.001Z,0.00
2018-09-12T03:05:05.021Z,4.00
2018-09-12T03:06:05.040Z,4.00
2018-09-12T03:07:05.064Z,0.00
2018-09-12T03:08:05.253Z,0.00
2018-09-12T03:09:05.105Z,4.00
2018-09-12T03:10:05.127Z,0.00
2018-09-12T03:11:05.143Z,4.00
2018-09-12T03:12:05.170Z,4.00
2018-09-12T03:13:05.191Z,0.00
2018-09-12T03:14:05.259Z,4.00
2018-09-12T03:15:05.233Z,0.00
2018-09-12T03:16:05.255Z,0.00
2018-09-12T03:17:05.281Z,4.00
2018-09-12T03:18:05.309Z,0.00
2018-09-12T03:19:05.325Z,0.00
2018-09-12T03:20:05.343Z,0.00
2018-09-12T03:21:05.561Z,0.00
2018-09-12T03:22:05.391Z,0.00
2018-09-12T03:23:05.413Z,0.00
2018-09-12T03:24:05.435Z,0.00
2018-09-12T03:25:05.458Z,0.00
2018-09-12T03:26:05.475Z,4.00
2018-09-12T03:27:05.499Z,4.00
2018-09-12T03:28:05.517Z,0.00
2018-09-12T03:29:05.542Z,0.00
2018-09-12T03:30:05.563Z,0.00
2018-09-12T03:31:05.587Z,0.00
2018-09-12T03:32:05.612Z,4.00
2018-09-12T03:33:05.625Z,0.00
2018-09-12T03:34:05.656Z,0.00
2018-09-12T03:35:05.667Z,4.00
2018-09-12T03:36:05.690Z,0.00
2018-09-12T03:37:05.716Z,0.00
2018-09-12T03:38:05.741Z,4.00
2018-09-12T03:39:05.755Z,0.00
2018-09-12T03:40:05.812Z,0.00
2018-09-12T03:41:05.801Z,4.00
2018-09-12T03:42:05.827Z,0.00
2018-09-12T03:43:05.849Z,0.00
2018-09-12T03:44:05.859Z,4.00
2018-09-12T03:45:05.885Z,4.00
2018-09-12T03:46:05.908Z,4.00
2018-09-12T03:47:05.930Z,0.00
2018-09-12T03:48:05.975Z,4.00
2018-09-12T03:49:05.971Z,0.00
2018-09-12T03:50:05.996Z,4.00
2018-09-12T03:51:06.014Z,0.00
2018-09-12T03:52:06.039Z,0.00
2018-09-12T03:53:06.069Z,4.00
2018-09-12T03:54:06.078Z,4.00
2018-09-12T03:55:06.102Z,0.00
2018-09-12T03:56:06.124Z,4.00
2018-09-12T03:57:06.147Z,4.00
2018-09-12T03:58:06.167Z,0.00
2018-09-12T03:59:06.191Z,0.00
2018-09-12T04:00:06.211Z,4.00
2018-09-12T04:01:06.232Z,0.00
2018-09-12T04:02:06.253Z,0.00
2018-09-12T04:03:06.279Z,0.00
2018-09-12T04:04:06.303Z,0.00
2018-09-12T04:05:06.331Z,0.00
2018-09-12T04:06:06.344Z,4.00
2018-09-12T04:07:06.365Z,4.00
2018-09-12T04:08:06.387Z,0.00
2018-09-12T04:09:06.411Z,4.00
2018-09-12T04:10:06.433Z,4.00
2018-09-12T04:11:06.451Z,4.00
2018-09-12T04:12:06.483Z,4.00
2018-09-12T04:13:06.505Z,0.00
2018-09-12T04:14:06.519Z,4.00
2018-09-12T04:15:06.541Z,4.00
2018-09-12T04:16:06.563Z,4.00
2018-09-12T04:17:06.581Z,4.00
2018-09-12T04:18:06.602Z,0.00
2018-09-12T04:19:06.630Z,4.00
2018-09-12T04:20:06.655Z,4.00
2018-09-12T04:21:06.673Z,4.00
2018-09-12T04:22:06.693Z,4.00
2018-09-12T04:23:06.722Z,4.00
2018-09-12T04:24:06.757Z,4.00
2018-09-12T04:25:06.758Z,4.00
2018-09-12T04:26:06.783Z,4.00
2018-09-12T04:27:06.802Z,8.00
2018-09-12T04:28:06.825Z,4.00
2018-09-12T04:29:06.843Z,8.00
2018-09-12T04:30:06.869Z,8.00
2018-09-12T04:31:06.887Z,12.00
2018-09-12T04:32:06.914Z,12.00
2018-09-12T04:33:06.935Z,16.00
2018-09-12T04:34:06.953Z,20.00
2018-09-12T04:35:06.975Z,20.00
2018-09-12T04:36:07.003Z,24.00
2018-09-12T04:37:07.028Z,24.00
2018-09-12T04:38:07.042Z,28.00
2018-09-12T04:39:07.061Z,32.00
2018-09-12T04:40:07.083Z,40.00
2018-09-12T04:41:07.109Z,40.00
2018-09-12T04:42:07.130Z,48.00
2018-09-12T04:43:07.153Z,60.00
2018-09-12T04:44:07.176Z,60.00
2018-09-12T04:45:07.196Z,52.00
2018-09-12T04:46:07.217Z,52.00
2018-09-12T04:47:07.267Z,56.00
2018-09-12T04:48:07.258Z,60.00
2018-09-12T04:49:07.283Z,64.00
2018-09-12T04:50:07.301Z,60.00
2018-09-12T04:51:07.329Z,52.00
2018-09-12T04:52:07.347Z,60.00
2018-09-12T04:53:07.373Z,68.00
2018-09-12T04:54:07.385Z,84.00
2018-09-12T04:55:07.406Z,88.00
2018-09-12T04:56:07.433Z,80.00
2018-09-12T04:57:07.451Z,72.00
2018-09-12T04:58:07.483Z,72.00
2018-09-12T04:59:07.503Z,72.00
2018-09-12T05:00:07.520Z,84.00
2018-09-12T05:01:07.542Z,96.00
2018-09-12T05:02:07.562Z,112.00
2018-09-12T05:03:07.579Z,124.00
2018-09-12T05:04:07.600Z,144.00
2018-09-12T05:05:07.625Z,160.00
2018-09-12T05:06:07.655Z,180.00
2018-09-12T05:07:07.669Z,204.00
2018-09-12T05:08:07.691Z,224.00
2018-09-12T05:09:07.721Z,272.00
2018-09-12T05:10:07.772Z,300.00
2018-09-12T05:11:07.758Z,292.00
2018-09-12T05:12:07.781Z,260.00
2018-09-12T05:13:07.803Z,260.00
2018-09-12T05:14:07.821Z,284.00
2018-09-12T05:15:07.840Z,320.00
2018-09-12T05:16:07.911Z,392.00
2018-09-12T05:17:07.884Z,500.00
2018-09-12T05:18:07.904Z,560.00
2018-09-12T05:19:07.923Z,568.00
2018-09-12T05:20:07.945Z,544.00
2018-09-12T05:21:07.977Z,604.00
2018-09-12T05:22:07.994Z,684.00
2018-09-12T05:23:08.005Z,780.00
2018-09-12T05:24:08.030Z,916.00
2018-09-12T05:25:08.049Z,1068.00
2018-09-12T05:26:08.070Z,1156.00
2018-09-12T05:27:08.093Z,1224.00
2018-09-12T05:28:08.111Z,1340.00
2018-09-12T05:29:08.134Z,1352.00
2018-09-12T05:30:08.162Z,1328.00
2018-09-12T05:31:08.173Z,1276.00
2018-09-12T05:32:08.196Z,1220.00
2018-09-12T05:33:08.215Z,1356.00
2018-09-12T05:34:08.243Z,1628.00
2018-09-12T05:35:08.257Z,1684.00
2018-09-12T05:36:08.280Z,1632.00
2018-09-12T05:37:08.304Z,1540.00
2018-09-12T05:38:08.322Z,1548.00
2018-09-12T05:39:08.352Z,1432.00
2018-09-12T05:40:08.364Z,1360.00
2018-09-12T05:41:08.385Z,1284.00
2018-09-12T05:42:08.410Z,1088.00
2018-09-12T05:43:08.425Z,1020.00
2018-09-12T05:44:08.451Z,1048.00
2018-09-12T05:45:08.464Z,1104.00
2018-09-12T05:46:08.496Z,1076.00
2018-09-12T05:47:08.511Z,948.00
2018-09-12T05:48:08.527Z,852.00
2018-09-12T05:49:08.554Z,860.00
2018-09-12T05:50:08.657Z,876.00
2018-09-12T05:51:08.593Z,948.00
2018-09-12T05:52:08.620Z,1108.00
2018-09-12T05:53:08.647Z,1164.00
2018-09-12T05:54:08.659Z,812.00
2018-09-12T05:55:08.679Z,752.00
2018-09-12T05:56:08.705Z,940.00
2018-09-12T05:57:08.717Z,1100.00
2018-09-12T05:58:08.743Z,1108.00
2018-09-12T05:59:08.763Z,1120.00
2018-09-12T06:00:08.785Z,1160.00
2018-09-12T06:01:08.808Z,992.00
2018-09-12T06:02:08.827Z,936.00
2018-09-12T06:03:08.851Z,1004.00
2018-09-12T06:04:08.870Z,1128.00
2018-09-12T06:05:08.891Z,1232.00
2018-09-12T06:06:08.913Z,1340.00
2018-09-12T06:07:09.023Z,1544.00
2018-09-12T06:08:08.954Z,1664.00
2018-09-12T06:09:08.976Z,1760.00
2018-09-12T06:10:08.997Z,1380.00
2018-09-12T06:11:09.020Z,1192.00
2018-09-12T06:12:09.037Z,1420.00
2018-09-12T06:13:09.059Z,1524.00
2018-09-12T06:14:09.147Z,1324.00
2018-09-12T06:15:09.101Z,1116.00
2018-09-12T06:16:09.121Z,1108.00
2018-09-12T06:17:09.143Z,1328.00
2018-09-12T06:18:09.169Z,1408.00
2018-09-12T06:19:09.190Z,1188.00
2018-09-12T06:20:09.211Z,1216.00
2018-09-12T06:21:09.235Z,1556.00
2018-09-12T06:22:09.247Z,1780.00
2018-09-12T06:23:09.277Z,1652.00
2018-09-12T06:24:09.300Z,1612.00
2018-09-12T06:25:09.317Z,1840.00
2018-09-12T06:26:09.340Z,1860.00
2018-09-12T06:27:09.352Z,2016.00
2018-09-12T06:28:09.381Z,2316.00
2018-09-12T06:29:09.404Z,2636.00
2018-09-12T06:30:09.423Z,2680.00
2018-09-12T06:31:09.451Z,2588.00
2018-09-12T06:32:09.466Z,2584.00
2018-09-12T06:33:09.479Z,2460.00
2018-09-12T06:34:09.514Z,2256.00
2018-09-12T06:35:09.527Z,2328.00
2018-09-12T06:36:09.549Z,2508.00
2018-09-12T06:37:09.590Z,2900.00
2018-09-12T06:38:09.598Z,2992.00
2018-09-12T06:39:09.616Z,2176.00
2018-09-12T06:40:09.637Z,1740.00
2018-09-12T06:41:09.660Z,1728.00
2018-09-12T06:42:09.684Z,2120.00
2018-09-12T06:43:09.710Z,2332.00
2018-09-12T06:44:09.720Z,2756.00
2018-09-12T06:45:09.750Z,3060.00
2018-09-12T06:46:09.766Z,3576.00
2018-09-12T06:47:09.796Z,4076.00
2018-09-12T06:48:09.805Z,3820.00
2018-09-12T06:49:09.827Z,3528.00
2018-09-12T06:50:09.852Z,3284.00
2018-09-12T06:51:09.872Z,3236.00
2018-09-12T06:52:09.896Z,3508.00
2018-09-12T06:53:09.939Z,3752.00
2018-09-12T06:54:09.946Z,3412.00
2018-09-12T06:55:09.956Z,3596.00
2018-09-12T06:56:09.984Z,4000.00
2018-09-12T06:57:10.002Z,4140.00
2018-09-12T06:58:10.026Z,4720.00
2018-09-12T06:59:10.046Z,5612.00
2018-09-12T07:00:10.067Z,6188.00
2018-09-12T07:01:10.262Z,5444.00
2018-09-12T07:02:10.106Z,5080.00
2018-09-12T07:03:10.135Z,5320.00
2018-09-12T07:04:10.156Z,5532.00
2018-09-12T07:05:10.176Z,5208.00
2018-09-12T07:06:10.198Z,5488.00
2018-09-12T07:07:10.215Z,6896.00
2018-09-12T07:08:10.240Z,6028.00
2018-09-12T07:09:10.265Z,5440.00
2018-09-12T07:10:10.291Z,4980.00
2018-09-12T07:11:10.308Z,5296.00
2018-09-12T07:12:10.325Z,7368.00
2018-09-12T07:13:10.356Z,7052.00
2018-09-12T07:14:10.416Z,5324.00
2018-09-12T07:15:10.396Z,5908.00
2018-09-12T07:16:10.421Z,6388.00
2018-09-12T07:17:10.437Z,6760.00
2018-09-12T07:18:10.452Z,6064.00
2018-09-12T07:19:10.482Z,4428.00
2018-09-12T07:20:10.501Z,4852.00
2018-09-12T07:21:10.520Z,5320.00
2018-09-12T07:22:10.546Z,5464.00
2018-09-12T07:23:10.566Z,4820.00
2018-09-12T07:24:10.586Z,4772.00
2018-09-12T07:25:10.609Z,4964.00
2018-09-12T07:26:10.632Z,4680.00
2018-09-12T07:27:10.650Z,4952.00
2018-09-12T07:28:10.673Z,4528.00
2018-09-12T07:29:10.697Z,4356.00
2018-09-12T07:30:10.719Z,4916.00
2018-09-12T07:31:10.743Z,4456.00
2018-09-12T07:32:10.763Z,3272.00
2018-09-12T07:33:10.783Z,3096.00
2018-09-12T07:34:10.803Z,2908.00
2018-09-12T07:35:10.824Z,2736.00
2018-09-12T07:36:10.857Z,2912.00
2018-09-12T07:37:10.873Z,3116.00
2018-09-12T07:38:10.885Z,3336.00
2018-09-12T07:39:10.914Z,3464.00
2018-09-12T07:40:10.933Z,3720.00
2018-09-12T07:41:10.961Z,3808.00
2018-09-12T07:42:10.985Z,3708.00
2018-09-12T07:43:11.003Z,4012.00
2018-09-12T07:44:11.022Z,4484.00
2018-09-12T07:45:11.058Z,4548.00
2018-09-12T07:46:11.066Z,4124.00
2018-09-12T07:47:11.091Z,4100.00
2018-09-12T07:48:11.109Z,4120.00
2018-09-12T07:49:11.189Z,4076.00
2018-09-12T07:50:11.156Z,4328.00
2018-09-12T07:51:11.176Z,4628.00
2018-09-12T07:52:11.199Z,4896.00
2018-09-12T07:53:11.221Z,5388.00
2018-09-12T07:54:11.238Z,5556.00
2018-09-12T07:55:11.365Z,5720.00
2018-09-12T07:56:11.406Z,6068.00
2018-09-12T07:57:11.311Z,5948.00
2018-09-12T07:58:11.325Z,5824.00
2018-09-12T07:59:11.358Z,6244.00
2018-09-12T08:00:11.515Z,6364.00
2018-09-12T08:01:11.392Z,6908.00
2018-09-12T08:02:11.414Z,6664.00
2018-09-12T08:03:11.435Z,6584.00
2018-09-12T08:04:11.461Z,7248.00
2018-09-12T08:05:11.598Z,7420.00
2018-09-12T08:06:11.503Z,7584.00
2018-09-12T08:07:11.514Z,7156.00
2018-09-12T08:08:11.540Z,6300.00
2018-09-12T08:09:11.566Z,6040.00
2018-09-12T08:10:11.583Z,5832.00
2018-09-12T08:11:11.606Z,6380.00
2018-09-12T08:12:11.660Z,6724.00
2018-09-12T08:13:11.647Z,5840.00
2018-09-12T08:14:11.668Z,5664.00
2018-09-12T08:15:11.693Z,5684.00
2018-09-12T08:16:11.718Z,5940.00
2018-09-12T08:17:11.736Z,6556.00
2018-09-12T08:18:11.759Z,6708.00
2018-09-12T08:19:11.875Z,6380.00
2018-09-12T08:20:11.800Z,5828.00
2018-09-12T08:21:11.822Z,6084.00
2018-09-12T08:22:11.840Z,6904.00
2018-09-12T08:23:11.866Z,8220.00
2018-09-12T08:24:11.888Z,9648.00
2018-09-12T08:25:11.915Z,10548.00
2018-09-12T08:26:11.955Z,10160.00
2018-09-12T08:27:11.950Z,8960.00
2018-09-12T08:28:11.975Z,10160.00
2018-09-12T08:29:11.994Z,12208.00
2018-09-12T08:30:12.020Z,13052.00
2018-09-12T08:31:12.041Z,13548.00
2018-09-12T08:32:12.059Z,9932.00
2018-09-12T08:33:12.087Z,8988.00
2018-09-12T08:34:12.107Z,9336.00
2018-09-12T08:35:12.128Z,9464.00
2018-09-12T08:36:12.150Z,9552.00
2018-09-12T08:37:12.177Z,10676.00
2018-09-12T08:38:12.194Z,11652.00
2018-09-12T08:39:12.223Z,12940.00
2018-09-12T08:40:12.238Z,13068.00
2018-09-12T08:41:12.262Z,11148.00
2018-09-12T08:42:12.350Z,9264.00
2018-09-12T08:43:12.308Z,9664.00
2018-09-12T08:44:12.326Z,9408.00
2018-09-12T08:45:12.354Z,8876.00
2018-09-12T08:46:12.378Z,8840.00
2018-09-12T08:47:12.394Z,9508.00
2018-09-12T08:48:12.424Z,10600.00
2018-09-12T08:49:12.447Z,12948.00
2018-09-12T08:50:12.477Z,16316.00
2018-09-12T08:51:12.486Z,16564.00
2018-09-12T08:52:12.511Z,16268.00
2018-09-12T08:53:12.544Z,16672.00
2018-09-12T08:54:12.556Z,14388.00
2018-09-12T08:55:12.573Z,14868.00
2018-09-12T08:56:12.602Z,14108.00
2018-09-12T08:57:12.622Z,14404.00
2018-09-12T08:58:12.648Z,14840.00
2018-09-12T08:59:12.672Z,12120.00
2018-09-12T09:00:12.728Z,11272.00
2018-09-12T09:01:12.730Z,10376.00
2018-09-12T09:02:12.738Z,10916.00
2018-09-12T09:03:12.772Z,13860.00
2018-09-12T09:04:12.871Z,14484.00
2018-09-12T09:05:12.808Z,14376.00
2018-09-12T09:06:12.836Z,15556.00
2018-09-12T09:07:12.854Z,17024.00
2018-09-12T09:08:12.878Z,17168.00
2018-09-12T09:09:12.904Z,16956.00
2018-09-12T09:10:12.932Z,15968.00
2018-09-12T09:11:12.951Z,15760.00
2018-09-12T09:12:12.974Z,13676.00
2018-09-12T09:13:13.000Z,12544.00
2018-09-12T09:14:13.021Z,13628.00
2018-09-12T09:15:13.043Z,15204.00
2018-09-12T09:16:13.071Z,15396.00
2018-09-12T09:17:13.105Z,14912.00
2018-09-12T09:18:13.116Z,15816.00
2018-09-12T09:19:13.144Z,15452.00
2018-09-12T09:20:13.164Z,14344.00
2018-09-12T09:21:13.190Z,13880.00
2018-09-12T09:22:13.210Z,10540.00
2018-09-12T09:23:13.234Z,7792.00
2018-09-12T09:24:13.261Z,7548.00
2018-09-12T09:25:13.281Z,8644.00
2018-09-12T09:26:13.302Z,9216.00
2018-09-12T09:27:13.336Z,8884.00
2018-09-12T09:28:13.348Z,8016.00
2018-09-12T09:29:13.389Z,8484.00
2018-09-12T09:30:13.400Z,8408.00
2018-09-12T09:31:13.418Z,6760.00
2018-09-12T09:32:13.434Z,6712.00
2018-09-12T09:33:13.470Z,7896.00
2018-09-12T09:34:13.492Z,7828.00
2018-09-12T09:35:13.560Z,6200.00
2018-09-12T09:36:13.538Z,6104.00
2018-09-12T09:37:13.558Z,7340.00
2018-09-12T09:38:13.586Z,11352.00
2018-09-12T09:39:13.606Z,13124.00
2018-09-12T09:40:13.631Z,12076.00
2018-09-12T09:41:13.648Z,11080.00
2018-09-12T09:42:13.676Z,11072.00
2018-09-12T09:43:13.712Z,11260.00
2018-09-12T09:44:13.722Z,10056.00
2018-09-12T09:45:13.748Z,9072.00
2018-09-12T09:46:13.771Z,9332.00
2018-09-12T09:47:13.788Z,10072.00
2018-09-12T09:48:14.052Z,10876.00
2018-09-12T09:49:13.839Z,11644.00
2018-09-12T09:50:13.859Z,13396.00
2018-09-12T09:51:13.893Z,12260.00
2018-09-12T09:52:13.905Z,11096.00
2018-09-12T09:53:13.927Z,12704.00
2018-09-12T09:54:13.960Z,11760.00
2018-09-12T09:55:14.053Z,10508.00
2018-09-12T09:56:13.998Z,10772.00
2018-09-12T09:57:14.022Z,11064.00
2018-09-12T09:58:14.044Z,10824.00
2018-09-12T09:59:14.072Z,10372.00
2018-09-12T10:00:14.156Z,9560.00
2018-09-12T10:01:14.115Z,10372.00
2018-09-12T10:02:14.143Z,10592.00
2018-09-12T10:03:14.162Z,9720.00
2018-09-12T10:04:14.189Z,8504.00
2018-09-12T10:05:14.209Z,6728.00
2018-09-12T10:06:14.239Z,5036.00
2018-09-12T10:07:14.254Z,4644.00
2018-09-12T10:08:14.281Z,4348.00
2018-09-12T10:09:14.304Z,4540.00
2018-09-12T10:10:14.327Z,4748.00
2018-09-12T10:11:14.350Z,4960.00
2018-09-12T10:12:14.373Z,5888.00
2018-09-12T10:13:14.398Z,7344.00
2018-09-12T10:14:14.417Z,8096.00
2018-09-12T10:15:14.448Z,7380.00
2018-09-12T10:16:14.467Z,7896.00
2018-09-12T10:17:14.487Z,9540.00
2018-09-12T10:18:14.518Z,10504.00
2018-09-12T10:19:14.535Z,11132.00
2018-09-12T10:20:14.564Z,11688.00
2018-09-12T10:21:14.583Z,11632.00
2018-09-12T10:22:14.606Z,9728.00
2018-09-12T10:23:14.627Z,7720.00
2018-09-12T10:24:14.659Z,6684.00
2018-09-12T10:25:14.675Z,6132.00
2018-09-12T10:26:14.695Z,5984.00
2018-09-12T10:27:14.716Z,5616.00
2018-09-12T10:28:14.746Z,4944.00
2018-09-12T10:29:14.767Z,4888.00
2018-09-12T10:30:14.795Z,4280.00
2018-09-12T10:31:14.820Z,3440.00
2018-09-12T10:32:14.837Z,2980.00
2018-09-12T10:33:14.857Z,2456.00
2018-09-12T10:34:14.886Z,1972.00
2018-09-12T10:35:14.917Z,1812.00
2018-09-12T10:36:14.930Z,1912.00
2018-09-12T10:37:14.950Z,2120.00
2018-09-12T10:38:14.973Z,2320.00
2018-09-12T10:39:14.997Z,2508.00
2018-09-12T10:40:15.021Z,2920.00
2018-09-12T10:41:15.043Z,3144.00
2018-09-12T10:42:15.071Z,3440.00
2018-09-12T10:43:15.091Z,3428.00
2018-09-12T10:44:15.114Z,3572.00
2018-09-12T10:45:15.131Z,3912.00
2018-09-12T10:46:15.159Z,4380.00
2018-09-12T10:47:15.180Z,5064.00
2018-09-12T10:48:15.204Z,5624.00
2018-09-12T10:49:15.224Z,6008.00
2018-09-12T10:50:15.249Z,6092.00
2018-09-12T10:51:15.269Z,5984.00
2018-09-12T10:52:15.295Z,5684.00
2018-09-12T10:53:15.312Z,6216.00
2018-09-12T10:54:15.335Z,7100.00
2018-09-12T10:55:15.362Z,7620.00
2018-09-12T10:56:15.379Z,7140.00
2018-09-12T10:57:15.401Z,6384.00
2018-09-12T10:58:15.425Z,6160.00
2018-09-12T10:59:15.554Z,6224.00
2018-09-12T11:00:15.472Z,6972.00
2018-09-12T11:01:15.506Z,7432.00
2018-09-12T11:02:15.520Z,7844.00
2018-09-12T11:03:15.539Z,9028.00
2018-09-12T11:04:15.559Z,10764.00
2018-09-12T11:05:15.578Z,12104.00
2018-09-12T11:06:15.598Z,12612.00
2018-09-12T11:07:15.623Z,13212.00
2018-09-12T11:08:15.643Z,14432.00
2018-09-12T11:09:15.671Z,14864.00
2018-09-12T11:10:15.700Z,14404.00
2018-09-12T11:11:15.707Z,13888.00
2018-09-12T11:12:15.734Z,13800.00
2018-09-12T11:13:15.760Z,13408.00
2018-09-12T11:14:15.781Z,13044.00
2018-09-12T11:15:15.833Z,13004.00
2018-09-12T11:16:15.830Z,13188.00
2018-09-12T11:17:15.843Z,13520.00
2018-09-12T11:18:15.880Z,13004.00
2018-09-12T11:19:15.898Z,11812.00
2018-09-12T11:20:15.922Z,10808.00
2018-09-12T11:21:15.946Z,10444.00
2018-09-12T11:22:15.962Z,10864.00
2018-09-12T11:23:15.985Z,11660.00
2018-09-12T11:24:16.012Z,12496.00
2018-09-12T11:25:16.032Z,13396.00
2018-09-12T11:26:16.054Z,13452.00
2018-09-12T11:27:16.084Z,13236.00
2018-09-12T11:28:16.103Z,14988.00
2018-09-12T11:29:16.123Z,16460.00
2018-09-12T11:30:16.149Z,17396.00
2018-09-12T11:31:16.169Z,17048.00
2018-09-12T11:32:16.188Z,19104.00
2018-09-12T11:33:16.216Z,24096.00
2018-09-12T11:34:16.280Z,36544.00
2018-09-12T11:35:16.267Z,19200.00
2018-09-12T11:36:16.288Z,21728.00
2018-09-12T11:37:16.311Z,20224.00
2018-09-12T11:38:16.334Z,13900.00
2018-09-12T11:39:16.357Z,13416.00
2018-09-12T11:40:16.461Z,17260.00
2018-09-12T11:41:16.404Z,23744.00
2018-09-12T11:42:16.437Z,22496.00
2018-09-12T11:43:16.464Z,20608.00
2018-09-12T11:44:16.478Z,23616.00
2018-09-12T11:45:16.503Z,22432.00
2018-09-12T11:46:16.529Z,15580.00
2018-09-12T11:47:16.548Z,14736.00
2018-09-12T11:48:16.572Z,14284.00
2018-09-12T11:49:16.638Z,14160.00
2018-09-12T11:50:16.623Z,15484.00
2018-09-12T11:51:16.647Z,18496.00
2018-09-12T11:52:16.671Z,21280.00
2018-09-12T11:53:16.706Z,26144.00
2018-09-12T11:54:16.723Z,25376.00
2018-09-12T11:55:16.745Z,17120.00
2018-09-12T11:56:16.770Z,13780.00
2018-09-12T11:57:16.797Z,13452.00
2018-09-12T11:58:16.821Z,12728.00
2018-09-12T11:59:16.846Z,12052.00
2018-09-12T12:00:16.867Z,10940.00
2018-09-12T12:01:16.893Z,10788.00
2018-09-12T12:02:16.957Z,10512.00
2018-09-12T12:03:16.944Z,10380.00
2018-09-12T12:04:16.971Z,11828.00
2018-09-12T12:05:16.992Z,13504.00
2018-09-12T12:06:17.016Z,14948.00
2018-09-12T12:07:17.041Z,17000.00
2018-09-12T12:08:17.071Z,21248.00
2018-09-12T12:09:17.095Z,24480.00
2018-09-12T12:10:17.117Z,20160.00
2018-09-12T12:11:17.137Z,17444.00
2018-09-12T12:12:17.163Z,15892.00
2018-09-12T12:13:17.237Z,14460.00
2018-09-12T12:14:17.205Z,13276.00
2018-09-12T12:15:17.245Z,11520.00
2018-09-12T12:16:17.261Z,9488.00
2018-09-12T12:17:17.285Z,7820.00
2018-09-12T12:18:17.308Z,7996.00
2018-09-12T12:19:17.335Z,8792.00
2018-09-12T12:20:17.364Z,8588.00
2018-09-12T12:21:17.382Z,8524.00
2018-09-12T12:22:17.416Z,8620.00
2018-09-12T12:23:17.453Z,9652.00
2018-09-12T12:24:17.459Z,10556.00
2018-09-12T12:25:17.482Z,11580.00
2018-09-12T12:26:17.510Z,13168.00
2018-09-12T12:27:17.531Z,14776.00
2018-09-12T12:28:17.551Z,15540.00